Latest Weather Observations for Hunters Hill

IDV60801

Issued at 9:05 pm EST Monday 1 September 2014 (issued every 30 minutes, with the page automatically refreshed every 10 minutes)

About weather observations | Map of weather stations | Latest weather observations for VIC | Other Formats
Station Details ID: 082139 Name: HUNTERS HILL Lat: -36.21 Lon: 147.54 Height: 981.0 m
Data from the previous 72 hours. | See also: Recent months at Hunters Hill
Date/Time
EST
Temp
°C
App
Temp
°C
Dew
Point
Rel
Hum
%
Delta-T
°C
Wind Press
QNH
hPa
Press
MSL
hPa
Rain
since 9 am
mm
Dir
 
Spd
km/h
Gust
km/h
Spd
kts
Gust
kts
01/09:00pm 5.8 1.2 5.8 100 0.0 NW 19 30 10 16 - - 1.0
01/08:30pm 6.1 2.7 6.1 100 0.0 W 13 28 7 15 - - 0.4
01/08:00pm 6.4 3.5 6.4 100 0.0 W 11 20 6 11 - - 0.2
01/07:30pm 6.7 3.8 6.6 99 0.0 WSW 11 28 6 15 - - 0.2
01/07:00pm 7.1 4.3 6.8 98 0.1 W 11 19 6 10 - - 0.0
01/06:30pm 8.2 3.8 4.6 78 1.7 W 17 30 9 16 - - 0.0
01/06:00pm 9.3 5.0 3.1 65 2.8 W 15 28 8 15 - - 0.0
01/05:30pm 10.3 5.9 2.7 59 3.5 W 15 26 8 14 - - 0.0
01/05:00pm 11.9 8.0 3.4 56 4.0 NNW 13 30 7 16 - - 0.0
01/04:30pm 12.2 8.0 3.7 56 4.0 NNW 15 28 8 15 - - 0.0
01/04:00pm 12.4 8.3 4.6 59 3.8 NNW 15 35 8 19 - - 0.0
01/03:30pm 13.0 9.3 4.4 56 4.2 NNW 13 26 7 14 - - 0.0
01/03:00pm 12.9 7.9 3.6 53 4.4 NNW 19 33 10 18 - - 0.0
01/02:30pm 12.7 8.0 3.4 53 4.4 NNW 17 32 9 17 - - 0.0
01/02:00pm 13.1 9.1 2.9 50 4.8 NNW 13 30 7 16 - - 0.0
01/01:30pm 12.7 8.7 3.1 52 4.5 NNW 13 28 7 15 - - 0.0
01/01:00pm 14.5 11.0 3.6 48 5.2 NW 11 26 6 14 - - 0.0
01/12:30pm 14.0 11.6 5.4 56 4.3 N 7 20 4 11 - - 0.0
01/12:00pm 13.6 10.5 5.5 58 4.0 N 11 22 6 12 - - 0.0
01/11:30am 13.3 9.4 3.4 51 4.7 N 13 22 7 12 - - 0.0
01/11:00am 13.0 10.1 4.4 56 4.2 N 9 17 5 9 - - 0.0
01/10:30am 12.5 10.3 6.3 66 3.1 NNE 7 17 4 9 - - 0.0
01/10:00am 11.2 8.3 4.7 64 3.1 N 9 17 5 9 - - 0.0
01/09:30am 10.6 8.1 4.9 68 2.7 N 7 17 4 9 - - 0.0
01/09:00am 8.5 6.1 4.5 76 1.9 N 6 13 3 7 - - 0.0
01/08:30am 9.1 6.7 5.1 76 1.9 NNE 7 24 4 13 - - 0.0
01/08:00am 6.4 4.1 4.9 90 0.7 ENE 6 15 3 8 - - 0.0
01/07:30am 5.9 3.9 4.4 90 0.7 NNE 4 9 2 5 - - 0.0
01/07:00am 5.7 3.6 4.0 89 0.8 NNE 4 6 2 3 - - 0.0
01/06:30am 5.5 3.8 3.8 89 0.8 NNE 2 7 1 4 - - 0.0
01/06:00am 5.6 3.8 3.6 87 0.9 NNE 2 7 1 4 - - 0.0
01/05:30am 6.2 4.0 3.5 83 1.2 NNE 4 7 2 4 - - 0.0
01/05:00am 6.0 3.8 3.3 83 1.2 NNE 4 6 2 3 - - 0.0
01/04:30am 6.5 4.3 3.3 80 1.4 NNE 4 9 2 5 - - 0.0
01/04:00am 6.7 4.1 3.1 78 1.6 NNE 6 9 3 5 - - 0.0
01/03:30am 6.8 4.6 3.1 77 1.7 WNW 4 6 2 3 - - 0.0
01/03:00am 7.2 5.3 2.9 74 1.9 WNW 2 6 1 3 - - 0.0
01/02:30am 6.4 4.3 3.9 84 1.1 WNW 4 7 2 4 - - 0.0
01/02:00am 6.2 4.2 4.2 87 0.9 WNW 4 7 2 4 - - 0.0
01/01:30am 5.9 4.3 4.7 92 0.6 WNW 2 6 1 3 - - 0.0
01/01:00am 6.6 4.7 4.8 88 0.8 WNW 4 6 2 3 - - 0.0
01/12:30am 7.0 5.4 4.3 83 1.2 WNW 2 4 1 2 - - 0.0
01/12:00am 7.6 5.5 4.0 78 1.7 WNW 4 6 2 3 - - 0.0
 
Date/Time
EST
Temp
°C
App
Temp
°C
Dew
Point
Rel
Hum
%
Delta-T
°C
Wind Press
QNH
hPa
Press
MSL
hPa
Rain
since 9 am
mm
Dir
 
Spd
km/h
Gust
km/h
Spd
kts
Gust
kts
31/11:30pm 7.6 5.5 4.0 78 1.7 WNW 4 6 2 3 - - 0.0
31/11:00pm 8.1 5.7 4.5 78 1.7 WNW 6 7 3 4 - - 0.0
31/10:30pm 8.4 6.0 4.4 76 1.9 WNW 6 11 3 6 - - 0.0
31/10:00pm 8.7 6.4 4.9 77 1.8 WNW 6 7 3 4 - - 0.0
31/09:30pm 8.5 6.3 5.1 79 1.6 WNW 6 7 3 4 - - 0.0
31/09:00pm 8.6 6.0 4.2 74 2.0 WNW 7 9 4 5 - - 0.0
31/08:30pm 8.5 5.7 2.3 65 2.8 W 6 7 3 4 - - 0.0
31/08:00pm 8.3 5.8 3.6 72 2.1 W 6 7 3 4 - - 0.0
31/07:30pm 8.4 5.9 3.7 72 2.2 W 6 7 3 4 - - 0.0
31/07:00pm 8.5 5.8 3.8 72 2.2 W 7 9 4 5 - - 0.0
31/06:30pm 8.4 6.0 5.2 80 1.5 W 7 11 4 6 - - 0.0
31/06:00pm 8.8 6.5 4.6 75 2.0 WNW 6 7 3 4 - - 0.0
31/05:30pm 9.9 7.4 3.6 65 2.9 WNW 6 9 3 5 - - 0.0
31/05:00pm 11.7 9.2 3.5 57 3.8 WNW 6 9 3 5 - - 0.0
31/04:30pm 12.5 10.0 3.5 54 4.2 WNW 6 11 3 6 - - 0.0
31/04:00pm 12.7 10.3 4.2 56 4.1 WNW 6 13 3 7 - - 0.0
31/03:30pm 12.7 10.3 4.4 57 4.0 NW 6 13 3 7 - - 0.0
31/03:00pm 13.3 11.6 4.2 54 4.4 WNW 2 9 1 5 - - 0.0
31/02:30pm 13.3 11.0 4.7 56 4.2 W 6 11 3 6 - - 0.0
31/02:00pm 11.3 8.1 3.3 58 3.7 WSW 9 17 5 9 - - 0.0
31/01:30pm 13.5 10.9 3.0 49 4.9 WSW 6 15 3 8 - - 0.0
31/01:00pm 12.7 9.6 1.4 46 5.1 WNW 7 13 4 7 - - 0.0
31/12:30pm 12.9 10.4 3.6 53 4.4 WNW 6 13 3 7 - - 0.0
31/12:00pm 12.7 10.2 3.9 55 4.2 WNW 6 15 3 8 - - 0.0
31/11:30am 11.6 9.1 4.6 62 3.4 WNW 7 13 4 7 - - 0.0
31/11:00am 11.1 8.6 3.6 60 3.5 NW 6 13 3 7 - - 0.0
31/10:30am 11.0 8.5 4.0 62 3.3 NW 6 9 3 5 - - 0.0
31/10:00am 10.4 7.6 3.2 61 3.3 WNW 7 11 4 6 - - 0.0
31/09:30am 9.5 6.9 3.0 64 3.0 W 6 7 3 4 - - 0.0
31/09:00am 9.4 7.2 3.4 66 2.8 W 4 9 2 5 - - 0.0
31/08:30am 9.0 6.8 3.4 68 2.6 W 4 6 2 3 - - 0.0
31/08:00am 8.2 6.8 3.5 72 2.1 CALM 0 4 0 2 - - 0.0
31/07:30am 7.0 5.2 3.6 79 1.5 W 2 4 1 2 - - 0.0
31/07:00am 6.2 4.3 2.8 79 1.5 W 2 4 1 2 - - 0.0
31/06:30am 6.0 4.1 3.0 81 1.3 W 2 4 1 2 - - 0.0
31/06:00am 6.2 4.7 3.0 80 1.4 CALM 0 0 0 0 - - 0.0
31/05:30am 6.2 4.3 3.0 80 1.4 W 2 4 1 2 - - 0.0
31/05:00am 6.2 4.4 3.2 81 1.3 W 2 4 1 2 - - 0.0
31/04:30am 5.7 4.1 2.7 81 1.3 CALM 0 0 0 0 - - 0.0
31/04:00am 5.8 4.3 2.8 81 1.3 CALM 0 0 0 0 - - 0.0
31/03:30am 6.3 4.8 2.9 79 1.5 CALM 0 0 0 0 - - 0.0
31/03:00am 7.0 6.2 6.6 97 0.2 CALM 0 0 0 0 - - 0.0
31/02:30am 7.1 6.3 6.4 95 0.3 CALM 0 0 0 0 - - 0.0
31/02:00am 7.3 6.0 6.2 93 0.5 W 2 4 1 2 - - 0.0
31/01:30am 7.4 5.9 6.7 95 0.3 W 4 4 2 2 - - 0.0
31/01:00am 7.6 6.0 6.2 91 0.7 W 4 6 2 3 - - 0.0
31/12:30am 7.9 6.3 6.4 90 0.7 W 4 6 2 3 - - 0.0
31/12:00am 7.7 6.7 5.7 87 1.0 CALM 0 4 0 2 - - 0.0
 
Date/Time
EST
Temp
°C
App
Temp
°C
Dew
Point
Rel
Hum
%
Delta-T
°C
Wind Press
QNH
hPa
Press
MSL
hPa
Rain
since 9 am
mm
Dir
 
Spd
km/h
Gust
km/h
Spd
kts
Gust
kts
30/11:30pm 7.7 6.6 5.2 84 1.2 CALM 0 0 0 0 - - 0.0
30/11:00pm 7.8 6.8 5.4 85 1.1 CALM 0 0 0 0 - - 0.0
30/10:30pm 8.0 6.1 5.1 82 1.4 W 4 4 2 2 - - 0.0
30/10:00pm 8.8 7.0 5.2 78 1.7 W 4 6 2 3 - - 0.0
30/09:30pm 8.6 6.6 4.6 76 1.9 W 4 7 2 4 - - 0.0
30/09:00pm 8.7 6.3 4.5 75 2.0 W 6 7 3 4 - - 0.0
30/08:30pm 8.6 6.0 3.0 68 2.5 W 6 9 3 5 - - 0.0
30/08:00pm 8.2 5.3 1.6 63 2.9 W 6 9 3 5 - - 0.0
30/07:30pm 8.2 5.3 1.6 63 2.9 W 6 11 3 6 - - 0.0
30/07:00pm 8.3 5.5 2.3 66 2.7 W 6 9 3 5 - - 0.0
30/06:30pm 8.6 5.9 2.6 66 2.7 W 6 7 3 4 - - 0.0
30/06:00pm 8.8 6.2 4.0 72 2.2 W 7 11 4 6 - - 0.0
30/05:30pm 10.0 7.3 3.7 65 2.9 W 7 13 4 7 - - 0.0
30/05:00pm 11.6 8.9 3.9 59 3.6 W 7 15 4 8 - - 0.0
30/04:30pm 12.4 9.8 4.1 57 4.0 WNW 7 13 4 7 - - 0.0
30/04:00pm 12.9 10.0 2.7 50 4.7 WNW 7 13 4 7 - - 0.0
30/03:30pm 13.4 10.7 2.6 48 5.0 WNW 6 13 3 7 - - 0.0
30/03:00pm 13.9 11.5 2.2 45 5.4 WNW 4 7 2 4 - - 0.0
30/02:30pm 14.1 11.5 1.1 41 5.9 WNW 4 11 2 6 - - 0.0
30/02:00pm 13.5 10.5 0.9 42 5.7 NW 6 13 3 7 - - 0.0
30/01:30pm 13.8 10.9 1.5 43 5.6 N 6 9 3 5 - - 0.0
30/01:00pm 12.9 10.1 2.2 48 4.9 NNW 6 11 3 6 - - 0.0
30/12:30pm 13.1 10.3 1.8 46 5.2 N 6 9 3 5 - - 0.0
30/12:00pm 13.1 10.8 2.6 49 4.9 W 4 11 2 6 - - 0.0
30/11:30am 13.2 10.8 2.4 48 5.0 NE 4 9 2 5 - - 0.0
30/11:00am 12.8 10.9 2.6 50 4.7 SSE 2 6 1 3 - - 0.0
30/10:30am 11.3 9.0 2.6 55 4.0 SSE 4 6 2 3 - - 0.0
30/10:00am 11.5 9.3 -1.6 40 5.5 CALM 0 4 0 2 - - 0.0
30/09:30am 10.4 8.5 0.4 50 4.3 CALM 0 4 0 2 - - 0.0
30/09:00am 9.4 6.9 -1.0 48 4.3 SSE 2 4 1 2 - - 0.0
30/08:30am 8.9 6.0 -0.9 50 4.1 SSE 4 6 2 3 - - 0.0
30/08:00am 7.4 4.7 0.2 60 3.0 SSE 4 4 2 2 - - 0.0
30/07:30am 6.2 3.5 0.5 67 2.4 SSE 4 6 2 3 - - 0.0
30/07:00am 5.7 2.9 -0.1 66 2.4 SSE 4 7 2 4 - - 0.0
30/06:30am 5.5 3.0 -0.8 64 2.5 SSE 2 6 1 3 - - 0.0
30/06:00am 5.8 3.0 -0.7 63 2.6 SSE 4 6 2 3 - - 0.0
30/05:30am 6.2 3.3 -1.0 60 2.9 SSE 4 4 2 2 - - 0.0
30/05:00am 6.3 3.4 -0.9 60 2.9 SSE 4 7 2 4 - - 0.0
30/04:30am 6.1 3.1 0.6 68 2.3 SSE 6 7 3 4 - - 0.0
30/04:00am 6.1 3.2 1.4 72 2.0 SSE 6 9 3 5 - - 0.0
30/03:30am 6.6 3.7 1.3 69 2.3 SSE 6 9 3 5 - - 0.0
30/03:00am 6.4 3.8 1.1 69 2.2 SSE 4 7 2 4 - - 0.0
30/02:30am 6.9 4.3 1.2 67 2.4 SSE 4 6 2 3 - - 0.0
30/02:00am 7.2 4.3 1.3 66 2.5 SSE 6 7 3 4 - - 0.0
30/01:30am 7.1 4.2 1.2 66 2.5 S 6 9 3 5 - - 0.0
30/01:00am 7.3 4.3 0.7 63 2.8 S 6 9 3 5 - - 0.0
30/12:30am 7.7 4.6 0.4 60 3.1 S 6 7 3 4 - - 0.0
30/12:00am 7.9 4.8 -0.1 57 3.3 S 6 7 3 4 - - 0.0
 
Date/Time
EST
Temp
°C
App
Temp
°C
Dew
Point
Rel
Hum
%
Delta-T
°C
Wind Press
QNH
hPa
Press
MSL
hPa
Rain
since 9 am
mm
Dir
 
Spd
km/h
Gust
km/h
Spd
kts
Gust
kts
29/11:30pm 8.2 5.3 -0.8 53 3.7 S 4 6 2 3 - - 0.0
29/11:00pm 8.6 6.2 -0.4 53 3.8 S 2 4 1 2 - - 0.0
29/10:30pm 8.4 5.9 1.3 61 3.1 S 4 6 2 3 - - 0.0
29/10:00pm 8.3 5.5 1.9 64 2.8 S 6 7 3 4 - - 0.0
29/09:30pm 8.6 6.3 2.8 67 2.6 S 4 6 2 3 - - 0.0

Other Formats:

Comma delimited format used in spreadsheet applications
http://www.bom.gov.au/fwo/IDV60801/IDV60801.94878.axf

JavaScript Object Notation format (JSON) in row-major order
http://www.bom.gov.au/fwo/IDV60801/IDV60801.94878.json